createdAt,value
2022-10-04T00:00:17.574Z,50.834782
2022-10-04T00:01:17.886Z,50.834808
2022-10-04T00:02:17.590Z,50.834812
2022-10-04T00:03:17.577Z,50.834801
2022-10-04T00:04:17.557Z,50.834808
2022-10-04T00:05:17.446Z,50.834793
2022-10-04T00:06:17.435Z,50.834820
2022-10-04T00:07:17.483Z,50.834824
2022-10-04T00:08:17.432Z,50.834808
2022-10-04T00:09:17.480Z,50.834824
2022-10-04T00:10:17.445Z,50.834820
2022-10-04T00:11:17.419Z,50.834805
2022-10-04T00:12:17.458Z,50.834801
2022-10-04T00:13:17.444Z,50.834816
2022-10-04T00:14:17.455Z,50.834808
2022-10-04T00:15:17.420Z,50.834808
2022-10-04T00:16:17.465Z,50.834801
2022-10-04T00:17:17.355Z,50.834793
2022-10-04T00:18:17.556Z,50.834789
2022-10-04T00:19:18.067Z,50.834831
2022-10-04T00:20:17.402Z,50.834808
2022-10-04T00:21:17.414Z,50.834805
2022-10-04T00:22:17.646Z,50.834824
2022-10-04T00:23:17.404Z,50.834812
2022-10-04T00:24:19.167Z,50.834808
2022-10-04T00:25:18.337Z,50.834789
2022-10-04T00:26:17.643Z,50.834816
2022-10-04T00:27:17.242Z,50.834805
2022-10-04T00:28:17.361Z,50.834797
2022-10-04T00:29:17.297Z,50.834805
2022-10-04T00:30:17.800Z,50.834793
2022-10-04T00:31:17.341Z,50.834789
2022-10-04T00:32:17.346Z,50.834805
2022-10-04T00:33:17.250Z,50.834801
2022-10-04T00:34:17.880Z,50.834793
2022-10-04T00:35:17.218Z,50.834785
2022-10-04T00:36:17.208Z,50.834793
2022-10-04T00:37:17.273Z,50.834839
2022-10-04T00:38:17.254Z,50.834843
2022-10-04T00:39:17.237Z,50.834808
2022-10-04T00:40:17.214Z,50.834774
2022-10-04T00:41:17.891Z,50.834782
2022-10-04T00:42:17.243Z,50.834785
2022-10-04T00:43:17.219Z,50.834789
2022-10-04T00:44:17.111Z,50.834789
2022-10-04T00:45:17.179Z,50.834805
2022-10-04T00:46:17.220Z,50.834820
2022-10-04T00:47:17.088Z,50.834827
2022-10-04T00:48:17.170Z,50.834816
2022-10-04T00:49:17.721Z,50.834846
2022-10-04T00:50:17.132Z,50.834854
2022-10-04T00:51:17.749Z,50.834835
2022-10-04T00:52:17.140Z,50.834805
2022-10-04T00:53:17.091Z,50.834808
2022-10-04T00:54:17.820Z,50.834812
2022-10-04T00:55:18.064Z,50.834812
2022-10-04T00:56:17.038Z,50.834816
2022-10-04T00:57:17.117Z,50.834820
2022-10-04T00:58:17.125Z,50.834816
2022-10-04T00:59:17.061Z,50.834816
2022-10-04T01:00:17.039Z,50.834808
2022-10-04T01:01:17.120Z,50.834808
2022-10-04T01:02:17.109Z,50.834831
2022-10-04T01:03:17.578Z,50.834831
2022-10-04T01:04:17.085Z,50.834812
2022-10-04T01:05:17.018Z,50.834824
2022-10-04T01:06:17.026Z,50.834827
2022-10-04T01:07:17.018Z,50.834827
2022-10-04T01:08:17.855Z,50.834827
2022-10-04T01:09:17.025Z,50.834820
2022-10-04T01:10:16.943Z,50.834824
2022-10-04T01:11:16.948Z,50.834820
2022-10-04T01:12:16.871Z,50.834820
2022-10-04T01:13:16.929Z,50.834812
2022-10-04T01:14:16.943Z,50.834835
2022-10-04T01:15:17.030Z,50.834831
2022-10-04T01:16:17.018Z,50.834835
2022-10-04T01:17:16.900Z,50.834827
2022-10-04T01:18:16.933Z,50.834820
2022-10-04T01:19:16.937Z,50.834816
2022-10-04T01:20:16.880Z,50.834835
2022-10-04T01:21:16.894Z,50.834831
2022-10-04T01:22:16.942Z,50.834850
2022-10-04T01:23:17.825Z,50.834854
2022-10-04T01:24:16.857Z,50.834846
2022-10-04T01:25:16.863Z,50.834846
2022-10-04T01:26:17.806Z,50.834816
2022-10-04T01:27:16.778Z,50.834820
2022-10-04T01:28:16.897Z,50.834824
2022-10-04T01:29:16.838Z,50.834820
2022-10-04T01:30:16.805Z,50.834812
2022-10-04T01:31:16.856Z,50.834831
2022-10-04T01:32:16.836Z,50.834827
2022-10-04T01:33:16.805Z,50.834827
2022-10-04T01:34:16.748Z,50.834835
2022-10-04T01:35:16.977Z,50.834824
2022-10-04T01:36:16.775Z,50.834839
2022-10-04T01:37:16.791Z,50.834850
2022-10-04T01:38:16.715Z,50.834827
2022-10-04T01:39:16.754Z,50.834850
2022-10-04T01:40:16.731Z,50.834827
2022-10-04T01:41:16.716Z,50.834831
2022-10-04T01:42:16.770Z,50.834827
2022-10-04T01:43:16.712Z,50.834808
2022-10-04T01:44:16.704Z,50.834816
2022-10-04T02:18:37.158Z,50.834805
2022-10-04T02:24:41.099Z,50.834824
2022-10-04T02:25:05.602Z,50.834797
2022-10-04T02:26:07.077Z,50.834824
2022-10-04T02:27:06.825Z,50.834793
2022-10-04T02:28:05.633Z,50.834820
2022-10-04T02:29:05.047Z,50.834816
2022-10-04T02:30:06.606Z,50.834839
2022-10-04T02:31:05.677Z,50.834820
2022-10-04T02:32:05.021Z,50.834843
2022-10-04T02:33:04.989Z,50.834843
2022-10-04T02:34:04.962Z,50.834827
2022-10-04T02:35:05.014Z,50.834835
2022-10-04T02:36:05.003Z,50.834843
2022-10-04T02:37:05.063Z,50.834835
2022-10-04T02:38:05.582Z,50.834835
2022-10-04T02:39:05.582Z,50.834816
2022-10-04T02:40:04.963Z,50.834820
2022-10-04T02:41:04.962Z,50.834820
2022-10-04T02:42:04.950Z,50.834827
2022-10-04T02:43:05.655Z,50.834824
2022-10-04T02:44:04.872Z,50.834824
2022-10-04T02:45:05.595Z,50.834816
2022-10-04T02:46:05.030Z,50.834831
2022-10-04T02:47:05.579Z,50.834831
2022-10-04T02:48:05.608Z,50.834824
2022-10-04T02:49:05.678Z,50.834846
2022-10-04T02:50:06.889Z,50.834839
2022-10-04T02:51:05.905Z,50.834827
2022-10-04T02:52:04.836Z,50.834839
2022-10-04T02:53:05.580Z,50.834831
2022-10-04T02:54:04.917Z,50.834866
2022-10-04T02:55:05.661Z,50.834827
2022-10-04T02:56:04.852Z,50.834850
2022-10-04T02:57:05.591Z,50.834824
2022-10-04T02:58:05.361Z,50.834827
2022-10-04T02:59:06.583Z,50.834831
2022-10-04T03:00:06.097Z,50.834824
2022-10-04T03:01:09.235Z,50.834839
2022-10-04T03:02:12.115Z,50.834854
2022-10-04T03:03:12.688Z,50.834850
2022-10-04T03:04:13.091Z,50.834843
2022-10-04T03:05:48.086Z,50.834850
2022-10-04T03:06:37.162Z,50.834820
2022-10-04T03:07:20.089Z,50.834820
2022-10-04T03:08:23.607Z,50.834816
2022-10-04T03:09:30.315Z,50.834824
2022-10-04T03:10:27.637Z,50.834797
2022-10-04T03:11:05.588Z,50.834805
2022-10-04T03:12:05.585Z,50.834827
2022-10-04T03:13:05.344Z,50.834808
2022-10-04T03:14:05.584Z,50.834808
2022-10-04T03:15:05.610Z,50.834812
2022-10-04T03:16:05.629Z,50.834816
2022-10-04T03:17:05.315Z,50.834820
2022-10-04T03:18:06.085Z,50.834843
2022-10-04T03:19:04.711Z,50.834835
2022-10-04T03:20:04.663Z,50.834843
2022-10-04T03:21:04.632Z,50.834835
2022-10-04T03:22:05.320Z,50.834820
2022-10-04T03:23:04.635Z,50.834801
2022-10-04T03:24:05.587Z,50.834812
2022-10-04T03:25:04.608Z,50.834793
2022-10-04T03:26:04.634Z,50.834805
2022-10-04T03:27:06.298Z,50.834808
2022-10-04T03:28:04.630Z,50.834805
2022-10-04T03:29:04.574Z,50.834797
2022-10-04T03:30:05.599Z,50.834801
2022-10-04T03:31:04.699Z,50.834797
2022-10-04T03:32:05.211Z,50.834793
2022-10-04T03:33:04.556Z,50.834797
2022-10-04T03:34:04.531Z,50.834797
2022-10-04T03:35:04.504Z,50.834801
2022-10-04T03:36:04.522Z,50.834797
2022-10-04T03:37:04.576Z,50.834789
2022-10-04T03:38:05.087Z,50.834782
2022-10-04T03:39:04.515Z,50.834789
2022-10-04T03:40:04.481Z,50.834797
2022-10-04T03:41:05.163Z,50.834805
2022-10-04T03:42:05.182Z,50.834793
2022-10-04T03:43:06.096Z,50.834805
2022-10-04T03:44:05.231Z,50.834797
2022-10-04T03:45:06.089Z,50.834797
2022-10-04T03:46:05.133Z,50.834816
2022-10-04T03:47:04.399Z,50.834808
2022-10-04T04:04:44.541Z,50.834793
2022-10-04T04:05:43.876Z,50.834778
2022-10-04T04:06:43.932Z,50.834763
2022-10-04T04:07:44.539Z,50.834785
2022-10-04T04:08:43.934Z,50.834751
2022-10-04T04:09:44.533Z,50.834736
2022-10-04T04:10:44.820Z,50.834736
2022-10-04T04:11:45.528Z,50.834724
2022-10-04T04:12:44.540Z,50.834740
2022-10-04T04:13:43.825Z,50.834751
2022-10-04T04:14:43.875Z,50.834728
2022-10-04T04:15:43.853Z,50.834766
2022-10-04T04:16:44.690Z,50.834797
2022-10-04T04:17:44.865Z,50.834816
2022-10-04T04:18:44.529Z,50.834801
2022-10-04T04:19:44.533Z,50.834789
2022-10-04T04:20:44.533Z,50.834801
2022-10-04T04:21:43.954Z,50.834785
2022-10-04T04:22:43.828Z,50.834797
2022-10-04T04:23:44.535Z,50.834805
2022-10-04T04:24:44.807Z,50.834789
2022-10-04T04:25:43.821Z,50.834770
2022-10-04T04:26:44.534Z,50.834759
2022-10-04T04:27:44.763Z,50.834778
2022-10-04T04:28:43.820Z,50.834785
2022-10-04T04:29:45.542Z,50.834793
2022-10-04T04:30:43.839Z,50.834789
2022-10-04T04:31:44.097Z,50.834793
2022-10-04T04:32:44.553Z,50.834789
2022-10-04T04:33:43.679Z,50.834812
2022-10-04T04:34:43.743Z,50.834789
2022-10-04T04:35:44.532Z,50.834805
2022-10-04T04:36:43.735Z,50.834816
2022-10-04T04:37:43.729Z,50.834812
2022-10-04T04:38:43.726Z,50.834820
2022-10-04T04:39:44.607Z,50.834812
2022-10-04T04:40:44.545Z,50.834824
2022-10-04T04:41:49.567Z,50.834824
2022-10-04T04:42:46.539Z,50.834793
2022-10-04T04:43:44.537Z,50.834797
2022-10-04T04:44:45.044Z,50.834751
2022-10-04T04:45:44.588Z,50.834793
2022-10-04T04:46:45.591Z,50.834774
2022-10-04T04:47:43.676Z,50.834782
2022-10-04T04:48:44.536Z,50.834782
2022-10-04T04:49:44.551Z,50.834812
2022-10-04T04:50:43.625Z,50.834793
2022-10-04T04:51:43.846Z,50.834782
2022-10-04T04:52:45.036Z,50.834778
2022-10-04T04:53:43.606Z,50.834782
2022-10-04T04:54:44.398Z,50.834816
2022-10-04T04:56:03.388Z,50.834805
2022-10-04T04:56:45.614Z,50.834789
2022-10-04T04:57:43.700Z,50.834763
2022-10-04T04:58:45.048Z,50.834778
2022-10-04T04:59:44.287Z,50.834789
2022-10-04T05:00:43.617Z,50.834763
2022-10-04T05:01:44.870Z,50.834789
2022-10-04T05:02:43.565Z,50.834808
2022-10-04T05:03:43.546Z,50.834782
2022-10-04T05:04:44.237Z,50.834763
2022-10-04T05:05:45.058Z,50.834763
2022-10-04T05:06:43.555Z,50.834793
2022-10-04T05:07:43.500Z,50.834763
2022-10-04T05:08:44.037Z,50.834770
2022-10-04T05:09:43.487Z,50.834782
2022-10-04T05:10:44.046Z,50.834801
2022-10-04T05:11:43.685Z,50.834763
2022-10-04T05:12:44.539Z,50.834789
2022-10-04T05:13:43.457Z,50.834793
2022-10-04T05:14:44.042Z,50.834774
2022-10-04T05:15:43.393Z,50.834785
2022-10-04T05:16:43.533Z,50.834785
2022-10-04T05:17:46.049Z,50.834763
2022-10-04T05:18:43.355Z,50.834751
2022-10-04T05:19:44.066Z,50.834766
2022-10-04T05:20:44.038Z,50.834774
2022-10-04T05:21:44.464Z,50.834789
2022-10-04T05:22:45.539Z,50.834778
2022-10-04T05:23:45.039Z,50.834789
2022-10-04T05:24:44.564Z,50.834789
2022-10-04T05:25:45.042Z,50.834816
2022-10-04T05:26:46.050Z,50.834797
2022-10-04T05:27:45.045Z,50.834797
2022-10-04T05:28:43.335Z,50.834831
2022-10-04T05:29:44.304Z,50.834835
2022-10-04T05:30:45.043Z,50.834831
2022-10-04T05:31:44.387Z,50.834808
2022-10-04T05:32:44.073Z,50.834812
2022-10-04T05:33:43.245Z,50.834820
2022-10-04T05:34:44.065Z,50.834835
2022-10-04T05:35:43.207Z,50.834824
2022-10-04T05:36:43.251Z,50.834805
2022-10-04T05:37:43.188Z,50.834785
2022-10-04T05:38:44.042Z,50.834808
2022-10-04T05:39:44.042Z,50.834812
2022-10-04T05:40:44.232Z,50.834808
2022-10-04T05:41:43.438Z,50.834801
2022-10-04T05:42:44.044Z,50.834808
2022-10-04T05:43:43.248Z,50.834797
2022-10-04T05:44:44.544Z,50.834854
2022-10-04T05:45:44.080Z,50.834846
2022-10-04T05:46:44.150Z,50.834827
2022-10-04T05:47:44.184Z,50.834858
2022-10-04T05:48:43.194Z,50.834843
2022-10-04T05:49:43.803Z,50.834873
2022-10-04T05:50:44.089Z,50.834827
2022-10-04T05:51:43.311Z,50.834843
2022-10-04T05:52:43.084Z,50.834835
2022-10-04T05:53:43.118Z,50.834831
2022-10-04T05:54:44.047Z,50.834831
2022-10-04T05:55:44.045Z,50.834831
2022-10-04T05:56:44.546Z,50.834827
2022-10-04T05:57:43.039Z,50.834850
2022-10-04T05:58:43.067Z,50.834839
2022-10-04T05:59:43.058Z,50.834816
2022-10-04T06:00:43.205Z,50.834850
2022-10-04T06:01:44.111Z,50.834827
2022-10-04T06:02:44.101Z,50.834808
2022-10-04T06:03:43.027Z,50.834805
2022-10-04T06:04:43.035Z,50.834812
2022-10-04T06:05:43.074Z,50.834824
2022-10-04T06:06:43.550Z,50.834812
2022-10-04T06:07:44.257Z,50.834827
2022-10-04T06:08:43.548Z,50.834843
2022-10-04T06:09:43.080Z,50.834854
2022-10-04T06:11:12.198Z,50.834843
2022-10-04T06:11:43.294Z,50.834824
2022-10-04T06:12:44.769Z,50.834835
2022-10-04T06:13:43.887Z,50.834831
2022-10-04T06:14:43.583Z,50.834820
2022-10-04T06:15:43.596Z,50.834831
2022-10-04T06:16:43.647Z,50.834824
2022-10-04T06:17:43.006Z,50.834808
2022-10-04T06:18:42.956Z,50.834831
2022-10-04T06:19:42.904Z,50.834827
2022-10-04T06:20:42.894Z,50.834831
2022-10-04T06:21:44.154Z,50.834835
2022-10-04T06:22:43.029Z,50.834839
2022-10-04T06:23:43.592Z,50.834824
2022-10-04T06:24:43.591Z,50.834835
2022-10-04T06:25:42.857Z,50.834812
2022-10-04T06:26:45.584Z,50.834827
2022-10-04T06:27:42.873Z,50.834824
2022-10-04T06:28:42.856Z,50.834812
2022-10-04T06:29:42.832Z,50.834835
2022-10-04T06:30:42.863Z,50.834846
2022-10-04T06:31:43.095Z,50.834820
2022-10-04T06:32:43.853Z,50.834839
2022-10-04T06:33:42.889Z,50.834846
2022-10-04T06:34:42.818Z,50.834843
2022-10-04T06:35:42.788Z,50.834843
2022-10-04T06:36:42.763Z,50.834846
2022-10-04T06:37:43.592Z,50.834820
2022-10-04T06:38:42.792Z,50.834824
2022-10-04T06:39:43.594Z,50.834835
2022-10-04T06:40:42.805Z,50.834835
2022-10-04T06:41:43.823Z,50.834831
2022-10-04T06:42:43.589Z,50.834820
2022-10-04T06:43:43.590Z,50.834820
2022-10-04T06:44:46.283Z,50.834812
2022-10-04T06:45:43.829Z,50.834824
2022-10-04T06:46:42.739Z,50.834801
2022-10-04T06:47:42.744Z,50.834812
2022-10-04T06:48:44.088Z,50.834816
2022-10-04T06:49:43.593Z,50.834824
2022-10-04T06:50:43.598Z,50.834816
2022-10-04T06:51:43.953Z,50.834816
2022-10-04T06:52:44.124Z,50.834816
2022-10-04T06:53:43.319Z,50.834820
2022-10-04T06:54:42.787Z,50.834831
2022-10-04T06:55:43.269Z,50.834816
2022-10-04T06:56:42.685Z,50.834827
2022-10-04T06:57:42.689Z,50.834812
2022-10-04T06:58:42.694Z,50.834827
2022-10-04T06:59:42.652Z,50.834827
2022-10-04T07:00:42.663Z,50.834831
2022-10-04T07:01:43.106Z,50.834835
2022-10-04T07:02:42.668Z,50.834827
2022-10-04T07:03:42.571Z,50.834820
2022-10-04T07:05:06.942Z,50.834831
2022-10-04T07:05:44.634Z,50.834816
2022-10-04T07:06:42.599Z,50.834831
2022-10-04T07:07:42.670Z,50.834850
2022-10-04T07:08:43.094Z,50.834839
2022-10-04T07:09:43.092Z,50.834820
2022-10-04T07:10:42.524Z,50.834831
2022-10-04T07:11:42.808Z,50.834820
2022-10-04T07:12:43.093Z,50.834831
2022-10-04T07:13:43.173Z,50.834827
2022-10-04T07:14:42.475Z,50.834816
2022-10-04T07:15:42.611Z,50.834816
2022-10-04T07:16:44.096Z,50.834824
2022-10-04T07:17:42.510Z,50.834816
2022-10-04T07:18:42.485Z,50.834824
2022-10-04T07:19:42.445Z,50.834824
2022-10-04T07:20:42.456Z,50.834824
2022-10-04T07:21:43.827Z,50.834846
2022-10-04T07:22:42.441Z,50.834835
2022-10-04T07:23:43.102Z,50.834858
2022-10-04T07:24:43.324Z,50.834866
2022-10-04T07:25:42.454Z,50.834892
2022-10-04T07:26:42.414Z,50.834881
2022-10-04T07:27:42.420Z,50.834877
2022-10-04T07:28:42.390Z,50.834846
2022-10-04T07:29:43.369Z,50.834854
2022-10-04T07:30:43.444Z,50.834854
2022-10-04T07:31:43.349Z,50.834862
2022-10-04T07:32:43.403Z,50.834805
2022-10-04T07:33:43.375Z,50.834820
2022-10-04T07:34:42.308Z,50.834812
2022-10-04T07:35:43.346Z,50.834877
2022-10-04T07:36:42.286Z,50.834866
2022-10-04T07:37:43.099Z,50.834854
2022-10-04T07:38:42.290Z,50.834900
2022-10-04T07:39:42.321Z,50.834862
2022-10-04T07:40:42.367Z,50.834839
2022-10-04T07:41:42.554Z,50.834824
2022-10-04T07:42:42.309Z,50.834843
2022-10-04T07:43:42.283Z,50.834827
2022-10-04T07:44:42.249Z,50.834824
2022-10-04T07:45:42.348Z,50.834801
2022-10-04T07:46:43.260Z,50.834831
2022-10-04T07:47:42.863Z,50.834816
2022-10-04T07:48:42.232Z,50.834812
2022-10-04T07:49:42.193Z,50.834816
2022-10-04T07:50:43.098Z,50.834824
2022-10-04T07:51:43.057Z,50.834835
2022-10-04T07:52:42.202Z,50.834824
2022-10-04T07:53:42.215Z,50.834827
2022-10-04T07:54:42.162Z,50.834820
2022-10-04T07:55:42.306Z,50.834816
2022-10-04T07:56:42.203Z,50.834827
2022-10-04T07:57:42.181Z,50.834835
2022-10-04T07:58:45.493Z,50.834797
2022-10-04T07:59:44.110Z,50.834797
2022-10-04T08:00:42.140Z,50.834824
2022-10-04T08:01:42.560Z,50.834831
2022-10-04T08:02:42.287Z,50.834831
2022-10-04T08:03:42.147Z,50.834835
2022-10-04T08:04:42.115Z,50.834839
2022-10-04T08:05:42.136Z,50.834812
2022-10-04T08:06:42.342Z,50.834835
2022-10-04T08:07:42.603Z,50.834831
2022-10-04T08:08:42.174Z,50.834831
2022-10-04T08:09:42.084Z,50.834831
2022-10-04T08:10:42.602Z,50.834843
2022-10-04T08:11:42.832Z,50.834850
2022-10-04T08:12:44.107Z,50.834843
2022-10-04T08:13:42.058Z,50.834835
2022-10-04T08:14:42.118Z,50.834808
2022-10-04T08:15:43.067Z,50.834801
2022-10-04T08:16:42.326Z,50.834808
2022-10-04T08:17:41.951Z,50.834801
2022-10-04T08:18:42.605Z,50.834827
2022-10-04T08:19:42.840Z,50.834831
2022-10-04T08:20:42.618Z,50.834824
2022-10-04T08:21:42.015Z,50.834816
2022-10-04T08:22:41.952Z,50.834812
2022-10-04T08:24:16.212Z,50.834820
2022-10-04T08:24:42.826Z,50.834812
2022-10-04T08:25:41.917Z,50.834839
2022-10-04T08:26:42.171Z,50.834839
2022-10-04T08:27:41.882Z,50.834835
2022-10-04T08:28:41.849Z,50.834835
2022-10-04T08:29:41.854Z,50.834835
2022-10-04T08:30:41.923Z,50.834812
2022-10-04T08:31:41.884Z,50.834801
2022-10-04T08:32:41.836Z,50.834820
2022-10-04T08:33:41.864Z,50.834827
2022-10-04T08:34:41.837Z,50.834824
2022-10-04T08:35:41.859Z,50.834820
2022-10-04T08:36:42.157Z,50.834816
2022-10-04T08:37:41.830Z,50.834846
2022-10-04T08:38:41.821Z,50.834854
2022-10-04T08:39:41.786Z,50.834869
2022-10-04T08:40:41.770Z,50.834846
2022-10-04T08:41:41.798Z,50.834862
2022-10-04T08:42:41.807Z,50.834839
2022-10-04T08:43:41.764Z,50.834839
2022-10-04T08:44:41.740Z,50.834850
2022-10-04T08:45:41.728Z,50.834846
2022-10-04T08:46:42.184Z,50.834854
2022-10-04T08:47:41.769Z,50.834843
2022-10-04T08:48:42.650Z,50.834846
2022-10-04T08:49:41.730Z,50.834854
2022-10-04T08:50:42.704Z,50.834839
2022-10-04T08:51:41.736Z,50.834858
2022-10-04T08:52:41.706Z,50.834843
2022-10-04T08:53:41.699Z,50.834839
2022-10-04T08:54:41.688Z,50.834839
2022-10-04T08:55:41.671Z,50.834812
2022-10-04T08:56:41.979Z,50.834850
2022-10-04T08:57:41.662Z,50.834835
2022-10-04T08:58:41.647Z,50.834824
2022-10-04T08:59:41.655Z,50.834846
2022-10-04T09:00:41.677Z,50.834854
2022-10-04T09:01:41.708Z,50.834881
2022-10-04T09:02:41.758Z,50.834877
2022-10-04T09:03:41.632Z,50.834881
2022-10-04T09:04:41.599Z,50.834866
2022-10-04T09:05:42.291Z,50.834862
2022-10-04T09:06:41.962Z,50.834866
2022-10-04T09:07:41.594Z,50.834869
2022-10-04T09:08:41.612Z,50.834843
2022-10-04T09:09:41.585Z,50.834858
2022-10-04T09:10:41.604Z,50.834824
2022-10-04T09:11:41.639Z,50.834824
2022-10-04T09:12:41.618Z,50.834820
2022-10-04T09:13:41.548Z,50.834839
2022-10-04T09:14:41.552Z,50.834843
2022-10-04T09:15:41.573Z,50.834850
2022-10-04T09:16:41.833Z,50.834843
2022-10-04T09:17:41.550Z,50.834831
2022-10-04T09:18:41.488Z,50.834820
2022-10-04T09:19:41.500Z,50.834850
2022-10-04T09:20:41.502Z,50.834846
2022-10-04T09:21:41.496Z,50.834850
2022-10-04T09:22:41.473Z,50.834862
2022-10-04T09:23:41.489Z,50.834820
2022-10-04T09:24:41.494Z,50.834858
2022-10-04T09:25:41.504Z,50.834827
2022-10-04T09:26:42.751Z,50.834808
2022-10-04T09:27:56.041Z,50.834831
2022-10-04T09:28:43.506Z,50.834816
2022-10-04T09:29:41.431Z,50.834835
2022-10-04T09:30:41.470Z,50.834843
2022-10-04T09:31:41.445Z,50.834827
2022-10-04T09:32:41.493Z,50.834839
2022-10-04T09:33:41.425Z,50.834843
2022-10-04T09:34:41.418Z,50.834850
2022-10-04T09:35:41.532Z,50.834835
2022-10-04T09:36:41.770Z,50.834824
2022-10-04T09:37:41.352Z,50.834793
2022-10-04T09:38:41.420Z,50.834789
2022-10-04T09:39:41.406Z,50.834824
2022-10-04T09:40:45.326Z,50.834816
2022-10-04T09:41:43.343Z,50.834843
2022-10-04T09:42:41.392Z,50.834827
2022-10-04T09:43:41.348Z,50.834827
2022-10-04T09:44:41.359Z,50.834827
2022-10-04T09:45:41.347Z,50.834839
2022-10-04T09:46:42.372Z,50.834835
2022-10-04T09:47:41.369Z,50.834835
2022-10-04T09:48:41.289Z,50.834835
2022-10-04T09:49:41.289Z,50.834839
2022-10-04T09:50:41.270Z,50.834808
2022-10-04T09:51:41.302Z,50.834820
2022-10-04T09:52:41.285Z,50.834805
2022-10-04T09:53:41.277Z,50.834816
2022-10-04T09:54:44.452Z,50.834835
2022-10-04T09:55:42.290Z,50.834820
2022-10-04T09:56:41.599Z,50.834820
2022-10-04T09:57:47.680Z,50.834816
2022-10-04T09:58:41.233Z,50.834824
2022-10-04T09:59:41.211Z,50.834835
2022-10-04T10:00:41.277Z,50.834843
2022-10-04T10:01:41.246Z,50.834824
2022-10-04T10:02:41.240Z,50.834820
2022-10-04T10:03:41.905Z,50.834808
2022-10-04T10:04:41.199Z,50.834782
2022-10-04T10:05:42.172Z,50.834808
2022-10-04T10:06:41.588Z,50.834805
2022-10-04T10:07:41.242Z,50.834812
2022-10-04T10:08:41.874Z,50.834801
2022-10-04T10:09:41.216Z,50.834805
2022-10-04T10:10:41.163Z,50.834801
2022-10-04T10:11:41.413Z,50.834797
2022-10-04T10:12:41.119Z,50.834785
2022-10-04T10:13:41.137Z,50.834793
2022-10-04T10:14:41.149Z,50.834801
2022-10-04T10:15:41.202Z,50.834812
2022-10-04T10:16:41.506Z,50.834820
2022-10-04T10:17:41.675Z,50.834789
2022-10-04T10:18:41.084Z,50.834801
2022-10-04T10:19:41.090Z,50.834793
2022-10-04T10:20:41.086Z,50.834808
2022-10-04T10:21:41.336Z,50.834808
2022-10-04T10:22:41.088Z,50.834816
2022-10-04T10:23:41.035Z,50.834816
2022-10-04T10:24:42.677Z,50.834805
2022-10-04T10:25:41.023Z,50.834808
2022-10-04T10:26:41.425Z,50.834805
2022-10-04T10:27:41.678Z,50.834808
2022-10-04T10:28:41.019Z,50.834801
2022-10-04T10:29:41.922Z,50.834812
2022-10-04T10:30:40.993Z,50.834805
2022-10-04T10:31:43.557Z,50.834820
2022-10-04T10:32:43.028Z,50.834831
2022-10-04T10:33:40.982Z,50.834820
2022-10-04T10:34:41.780Z,50.834801
2022-10-04T10:35:40.974Z,50.834785
2022-10-04T10:36:42.218Z,50.834785
2022-10-04T10:37:41.913Z,50.834782
2022-10-04T10:38:41.683Z,50.834774
2022-10-04T10:39:41.682Z,50.834785
2022-10-04T10:40:40.939Z,50.834778
2022-10-04T10:41:40.984Z,50.834785
2022-10-04T10:42:40.867Z,50.834797
2022-10-04T10:43:41.684Z,50.834793
2022-10-04T10:44:40.920Z,50.834782
2022-10-04T10:45:40.977Z,50.834774
2022-10-04T10:46:40.871Z,50.834785
2022-10-04T10:47:41.848Z,50.834778
2022-10-04T10:48:40.904Z,50.834766
2022-10-04T10:49:40.892Z,50.834774
2022-10-04T10:50:41.813Z,50.834785
2022-10-04T10:51:40.848Z,50.834770
2022-10-04T10:52:41.908Z,50.834766
2022-10-04T10:53:43.696Z,50.834763
2022-10-04T10:54:40.847Z,50.834778
2022-10-04T10:55:41.757Z,50.834774
2022-10-04T10:56:41.495Z,50.834759
2022-10-04T10:57:41.299Z,50.834766
2022-10-04T10:58:40.851Z,50.834778
2022-10-04T10:59:41.691Z,50.834782
2022-10-04T11:00:40.740Z,50.834782
2022-10-04T11:01:40.880Z,50.834789
2022-10-04T11:02:50.036Z,50.834785
2022-10-04T11:03:42.899Z,50.834793
2022-10-04T11:04:40.719Z,50.834785
2022-10-04T11:05:41.698Z,50.834797
2022-10-04T11:06:41.200Z,50.834778
2022-10-04T11:07:40.744Z,50.834805
2022-10-04T11:08:40.732Z,50.834797
2022-10-04T11:09:40.723Z,50.834793
2022-10-04T11:10:40.748Z,50.834782
2022-10-04T11:11:40.720Z,50.834789
2022-10-04T11:12:40.710Z,50.834785
2022-10-04T11:13:40.680Z,50.834766
2022-10-04T11:14:40.691Z,50.834766
2022-10-04T11:15:40.786Z,50.834785
2022-10-04T11:16:41.195Z,50.834789
2022-10-04T11:17:40.658Z,50.834782
2022-10-04T11:18:40.662Z,50.834801
2022-10-04T11:19:40.648Z,50.834785
2022-10-04T11:20:40.674Z,50.834778
2022-10-04T11:21:40.633Z,50.834778
2022-10-04T11:22:40.628Z,50.834785
2022-10-04T11:23:40.648Z,50.834782
2022-10-04T11:24:40.600Z,50.834778
2022-10-04T11:25:40.564Z,50.834770
2022-10-04T11:26:40.631Z,50.834770
2022-10-04T11:27:40.618Z,50.834766
2022-10-04T11:28:40.621Z,50.834778
2022-10-04T11:29:40.564Z,50.834782
2022-10-04T11:30:40.549Z,50.834778
2022-10-04T11:31:40.627Z,50.834763
2022-10-04T11:32:40.574Z,50.834763
2022-10-04T11:33:40.526Z,50.834751
2022-10-04T11:34:41.202Z,50.834763
2022-10-04T11:35:40.508Z,50.834778
2022-10-04T11:36:40.559Z,50.834774
2022-10-04T11:37:40.532Z,50.834778
2022-10-04T11:38:41.207Z,50.834778
2022-10-04T11:39:44.391Z,50.834778
2022-10-04T11:40:41.482Z,50.834789
2022-10-04T11:41:40.493Z,50.834785
2022-10-04T11:42:40.457Z,50.834763
2022-10-04T11:43:40.445Z,50.834770
2022-10-04T11:44:40.473Z,50.834766
2022-10-04T11:45:40.489Z,50.834778
2022-10-04T11:46:42.569Z,50.834774
2022-10-04T11:47:40.441Z,50.834778
2022-10-04T11:48:40.406Z,50.834782
2022-10-04T11:49:41.210Z,50.834797
2022-10-04T11:50:40.447Z,50.834793
2022-10-04T11:51:40.408Z,50.834801
2022-10-04T11:52:40.453Z,50.834808
2022-10-04T11:53:40.341Z,50.834808
2022-10-04T11:54:40.432Z,50.834797
2022-10-04T11:55:40.383Z,50.834789
2022-10-04T11:56:40.350Z,50.834808
2022-10-04T11:57:40.321Z,50.834808
2022-10-04T11:58:41.232Z,50.834805
2022-10-04T11:59:41.211Z,50.834808
2022-10-04T12:00:41.211Z,50.834820
2022-10-04T12:01:41.211Z,50.834839
2022-10-04T12:02:40.328Z,50.834793
2022-10-04T12:03:40.327Z,50.834805
2022-10-04T12:04:41.267Z,50.834805
2022-10-04T12:05:40.257Z,50.834801
2022-10-04T12:06:40.294Z,50.834797
2022-10-04T12:07:40.292Z,50.834793
2022-10-04T12:08:40.325Z,50.834820
2022-10-04T12:09:40.349Z,50.834816
2022-10-04T12:10:40.347Z,50.834793
2022-10-04T12:11:40.230Z,50.834801
2022-10-04T12:12:40.207Z,50.834778
2022-10-04T12:13:40.725Z,50.834778
2022-10-04T12:14:40.306Z,50.834797
2022-10-04T12:15:40.229Z,50.834812
2022-10-04T12:16:40.285Z,50.834805
2022-10-04T12:17:40.211Z,50.834801
2022-10-04T12:18:40.718Z,50.834808